Time;durP1;ratioP1;P1;durP2;ratioP2;P2;SDS_P1;SDS_P2;PMS_P1;PMS_P2;Temp;Humidity;BMP_temperature;BMP_pressure;BME280_temperature;BME280_humidity;BME280_pressure;Samples;Min_cycle;Max_cycle;Signal;HPM_P1;HPM_P2
2021/07/05 00:01:58;;;;;;;18.70;7.00;;;;;;;17.41;69.22;99673.55;126101;1093;27349;-59
2021/07/05 00:04:29;;;;;;;16.60;6.35;;;;;;;17.36;68.90;99674.39;125913;1093;22791;-60
2021/07/05 00:07:05;;;;;;;17.30;6.30;;;;;;;17.32;68.86;99667.57;126067;1093;22784;-60
2021/07/05 00:09:37;;;;;;;13.55;6.05;;;;;;;17.25;69.32;99668.97;126399;1092;22747;-61
2021/07/05 00:12:09;;;;;;;11.80;5.30;;;;;;;17.22;68.86;99672.08;126338;1092;22772;-58
2021/07/05 00:14:41;;;;;;;11.93;5.17;;;;;;;17.18;69.12;99672.41;125920;1093;25472;-61
2021/07/05 00:17:13;;;;;;;17.40;6.00;;;;;;;17.17;68.85;99667.31;126169;1093;22787;-60
2021/07/05 00:19:44;;;;;;;15.80;6.55;;;;;;;17.11;68.96;99667.38;125933;1093;27196;-62
2021/07/05 00:22:16;;;;;;;16.40;6.25;;;;;;;17.06;69.11;99665.44;126248;1093;22784;-58
2021/07/05 00:24:47;;;;;;;15.30;6.70;;;;;;;17.02;69.13;99669.86;126270;1093;22700;-62
2021/07/05 00:27:19;;;;;;;14.50;6.10;;;;;;;16.97;69.40;99666.59;126036;1093;27176;-59
2021/07/05 00:29:50;;;;;;;16.20;6.55;;;;;;;16.94;69.32;99667.69;126131;1093;26299;-61
2021/07/05 00:32:22;;;;;;;13.65;6.45;;;;;;;16.91;69.57;99670.80;126150;1093;22787;-57
2021/07/05 00:34:53;;;;;;;18.00;6.90;;;;;;;16.88;69.27;99666.24;126073;1092;22831;-60
2021/07/05 00:37:25;;;;;;;18.45;7.00;;;;;;;16.86;69.37;99658.30;126229;1093;27189;-60
2021/07/05 00:39:56;;;;;;;20.60;8.05;;;;;;;16.81;69.97;99664.80;126064;1093;22759;-61
2021/07/05 00:42:28;;;;;;;14.20;5.70;;;;;;;16.76;69.58;99657.18;126123;1092;22840;-61
2021/07/05 00:44:59;;;;;;;17.50;7.40;;;;;;;16.73;69.88;99657.50;126314;1093;22874;-59
2021/07/05 00:47:33;;;;;;;14.45;7.00;;;;;;;16.69;69.83;99666.27;126065;1092;27242;-58
2021/07/05 00:50:05;;;;;;;15.67;6.60;;;;;;;16.65;70.02;99662.23;126015;1090;22759;-58
2021/07/05 00:52:38;;;;;;;16.90;6.45;;;;;;;16.63;69.63;99659.19;126101;1090;22764;-59
2021/07/05 00:55:14;;;;;;;17.00;6.45;;;;;;;16.58;69.97;99660.79;126131;1088;24174;-58
2021/07/05 00:57:46;;;;;;;15.60;7.00;;;;;;;16.54;69.93;99660.34;126051;1093;22780;-59
2021/07/05 01:00:22;;;;;;;15.55;5.85;;;;;;;16.49;70.09;99663.22;125981;1093;27307;-60
2021/07/05 01:02:55;;;;;;;14.35;6.90;;;;;;;16.43;70.36;99657.64;126012;1093;25835;-59
2021/07/05 01:05:27;;;;;;;16.03;6.97;;;;;;;16.41;70.28;99663.05;126139;1093;27470;-60
2021/07/05 01:08:00;;;;;;;18.65;6.55;;;;;;;16.40;70.27;99666.41;126137;1092;26652;-58
2021/07/05 01:10:31;;;;;;;18.20;7.75;;;;;;;16.33;70.90;99673.41;126347;1093;27418;-61
2021/07/05 01:13:04;;;;;;;14.50;6.70;;;;;;;16.16;70.87;99670.80;126022;1092;22900;-59
2021/07/05 01:15:35;;;;;;;13.30;5.85;;;;;;;16.05;71.17;99676.59;126204;1093;26293;-59
2021/07/05 01:18:09;;;;;;;20.10;6.40;;;;;;;15.99;71.29;99673.05;125962;1092;22791;-59
2021/07/05 01:20:42;;;;;;;16.05;6.20;;;;;;;15.97;71.11;99674.90;126174;1093;22770;-59
2021/07/05 01:23:15;;;;;;;25.60;7.05;;;;;;;15.93;71.05;99677.25;126073;1093;26242;-61
2021/07/05 01:25:46;;;;;;;16.40;6.25;;;;;;;15.88;71.05;99673.20;126021;1093;22764;-60
2021/07/05 01:28:18;;;;;;;13.90;6.10;;;;;;;15.85;70.68;99670.70;125995;1093;22816;-59
2021/07/05 01:30:50;;;;;;;14.70;5.80;;;;;;;15.84;70.84;99674.78;126131;1093;22899;-61
2021/07/05 01:33:22;;;;;;;14.10;6.30;;;;;;;15.78;71.11;99669.23;126191;1092;22812;-57
2021/07/05 01:35:54;;;;;;;16.00;6.70;;;;;;;15.75;71.38;99667.45;126064;1093;22760;-60
2021/07/05 01:38:27;;;;;;;16.25;6.60;;;;;;;15.72;71.37;99665.72;125995;1093;23048;-57
2021/07/05 01:41:02;;;;;;;13.55;6.30;;;;;;;15.69;71.66;99672.39;126054;1093;22754;-60
2021/07/05 01:43:34;;;;;;;15.15;7.05;;;;;;;15.64;71.26;99658.39;126114;1093;25767;-59
2021/07/05 01:46:07;;;;;;;16.20;6.00;;;;;;;15.59;71.43;99662.78;125948;1093;24426;-64
2021/07/05 01:48:38;;;;;;;14.45;6.20;;;;;;;15.57;71.59;99664.59;125975;1093;27313;-59
2021/07/05 01:51:11;;;;;;;14.70;7.05;;;;;;;15.53;71.71;99661.30;125882;1093;24044;-57
2021/07/05 01:53:44;;;;;;;14.25;6.05;;;;;;;15.52;71.72;99660.54;125938;1093;22755;-56
2021/07/05 01:56:17;;;;;;;12.10;5.85;;;;;;;15.50;71.24;99657.48;125898;1093;22806;-55
2021/07/05 01:58:49;;;;;;;17.87;6.57;;;;;;;15.47;71.54;99655.75;126041;1093;22880;-58
2021/07/05 02:01:20;;;;;;;15.30;7.20;;;;;;;15.44;71.78;99651.16;125913;1093;23324;-59
2021/07/05 02:03:52;;;;;;;18.50;7.20;;;;;;;15.41;71.89;99657.83;125955;1093;22855;-55
2021/07/05 02:06:24;;;;;;;15.70;6.60;;;;;;;15.38;71.67;99648.38;125938;1092;24181;-58
2021/07/05 02:08:56;;;;;;;15.00;7.10;;;;;;;15.37;71.73;99651.73;125917;1093;22784;-57
2021/07/05 02:11:29;;;;;;;15.73;6.97;;;;;;;15.36;71.71;99644.56;126014;1093;23518;-57
2021/07/05 02:14:01;;;;;;;16.70;7.40;;;;;;;15.34;71.76;99647.14;125979;1093;22739;-58
2021/07/05 02:16:33;;;;;;;18.50;8.70;;;;;;;15.30;71.98;99641.05;126089;1092;22850;-58
2021/07/05 02:19:05;;;;;;;18.03;7.87;;;;;;;15.28;72.15;99638.77;125805;1092;22791;-59
2021/07/05 02:21:37;;;;;;;17.50;7.80;;;;;;;15.30;71.97;99644.63;125974;1093;22794;-57
2021/07/05 02:24:09;;;;;;;18.95;6.95;;;;;;;15.27;71.87;99648.48;125919;1093;22762;-56
2021/07/05 02:26:40;;;;;;;17.30;7.20;;;;;;;15.26;72.41;99649.78;126133;1093;24447;-57
2021/07/05 02:29:12;;;;;;;15.25;7.40;;;;;;;15.24;72.55;99649.55;125986;1093;22811;-56
2021/07/05 02:31:44;;;;;;;20.10;7.47;;;;;;;15.17;72.02;99660.59;125939;1093;22791;-58
2021/07/05 02:34:16;;;;;;;17.50;7.33;;;;;;;15.10;72.06;99672.42;125905;1093;26286;-58
2021/07/05 02:36:48;;;;;;;16.80;6.90;;;;;;;15.01;72.10;99675.55;125900;1093;22787;-58
2021/07/05 02:39:20;;;;;;;16.97;6.83;;;;;;;14.86;72.58;99678.73;125919;1093;25871;-58
2021/07/05 02:41:52;;;;;;;16.35;6.75;;;;;;;14.73;72.90;99684.20;125980;1093;25102;-58
2021/07/05 02:44:24;;;;;;;22.27;7.87;;;;;;;14.69;72.94;99682.95;125960;1093;25862;-57
2021/07/05 02:46:56;;;;;;;15.67;6.93;;;;;;;14.67;73.31;99683.45;125931;1093;27683;-58
2021/07/05 02:49:28;;;;;;;15.53;6.67;;;;;;;14.65;73.24;99668.42;125944;1093;27913;-59
2021/07/05 02:51:59;;;;;;;14.35;6.50;;;;;;;14.64;73.16;99664.84;125885;1093;22760;-57
2021/07/05 02:54:30;;;;;;;18.93;6.93;;;;;;;14.64;72.99;99673.27;125874;1093;22911;-58
2021/07/05 02:57:02;;;;;;;16.45;8.15;;;;;;;14.62;73.35;99673.03;125897;1092;22819;-58
2021/07/05 02:59:33;;;;;;;17.40;6.55;;;;;;;14.65;73.36;99668.42;125851;1093;22852;-58
2021/07/05 03:02:05;;;;;;;17.75;7.15;;;;;;;14.61;73.43;99674.30;125896;1092;22767;-60
2021/07/05 03:04:36;;;;;;;17.80;7.90;;;;;;;14.61;73.26;99674.30;125983;1093;22854;-57
2021/07/05 03:07:08;;;;;;;15.80;7.10;;;;;;;14.64;73.07;99678.13;125895;1093;25871;-56
2021/07/05 03:09:39;;;;;;;15.90;7.37;;;;;;;14.64;73.30;99666.88;125889;1093;27608;-57
2021/07/05 03:12:14;;;;;;;15.93;8.67;;;;;;;14.67;73.33;99672.22;125857;1093;22794;-57
2021/07/05 03:14:45;;;;;;;18.75;8.00;;;;;;;14.70;73.39;99678.84;125966;1093;22807;-57
2021/07/05 03:17:18;;;;;;;18.37;7.70;;;;;;;14.71;73.66;99686.00;125888;1093;22861;-59
2021/07/05 03:19:50;;;;;;;18.05;8.70;;;;;;;14.71;73.55;99688.81;126032;1093;22780;-57
2021/07/05 03:22:22;;;;;;;20.30;7.75;;;;;;;14.71;73.67;99681.13;125902;1093;22794;-59
2021/07/05 03:24:54;;;;;;;17.13;7.40;;;;;;;14.72;74.15;99688.28;126041;1093;22766;-58
2021/07/05 03:27:26;;;;;;;21.50;9.00;;;;;;;14.73;74.02;99689.05;126013;1093;24775;-60
2021/07/05 03:29:58;;;;;;;20.27;9.10;;;;;;;14.73;73.74;99692.63;125973;1093;22784;-55
2021/07/05 03:32:29;;;;;;;19.97;9.03;;;;;;;14.75;74.05;99681.64;125878;1093;25839;-57
2021/07/05 03:35:01;;;;;;;17.20;8.40;;;;;;;14.76;74.50;99693.62;125946;1093;22791;-55
2021/07/05 03:37:33;;;;;;;17.93;8.13;;;;;;;14.77;74.26;99689.53;126163;1093;23589;-56
2021/07/05 03:40:07;;;;;;;20.13;9.10;;;;;;;14.80;74.06;99686.44;125893;1093;24576;-56
2021/07/05 03:42:40;;;;;;;18.70;8.75;;;;;;;14.83;74.25;99696.65;125976;1092;22854;-56
2021/07/05 03:45:14;;;;;;;20.95;9.25;;;;;;;14.85;74.64;99698.93;125877;1093;24650;-57
2021/07/05 03:47:46;;;;;;;24.35;9.85;;;;;;;14.86;74.76;99697.63;126088;1093;22796;-57
2021/07/05 03:50:24;;;;;;;;;;;;;;;14.89;74.99;99702.22;125964;1093;22865;-58
2021/07/05 03:52:56;;;;;;;20.00;9.33;;;;;;;14.90;75.19;99695.30;125938;1093;21518;-58
2021/07/05 03:55:30;;;;;;;20.03;10.53;;;;;;;14.93;75.21;99699.89;126003;1093;25867;-58
2021/07/05 03:58:02;;;;;;;20.75;9.60;;;;;;;14.96;75.40;99698.86;125999;1093;23232;-59
2021/07/05 04:00:37;;;;;;;21.55;10.05;;;;;;;15.01;75.37;99698.81;125979;1093;22767;-54
2021/07/05 04:03:10;;;;;;;21.80;10.03;;;;;;;15.05;75.38;99702.09;125958;1092;26527;-59
2021/07/05 04:05:42;;;;;;;19.97;10.10;;;;;;;15.11;75.41;99704.86;125878;1093;27831;-59
2021/07/05 04:08:14;;;;;;;20.00;11.20;;;;;;;15.16;75.35;99704.06;126013;1093;22936;-55
2021/07/05 04:10:45;;;;;;;20.15;10.90;;;;;;;15.22;75.29;99711.17;125932;1093;23710;-58
2021/07/05 04:13:17;;;;;;;23.10;10.55;;;;;;;15.30;75.23;99703.69;126009;1093;22791;-60
2021/07/05 04:15:48;;;;;;;21.10;10.50;;;;;;;15.40;75.42;99712.54;125915;1093;25838;-56
2021/07/05 04:18:20;;;;;;;22.00;10.40;;;;;;;15.48;75.47;99719.14;125898;1093;22772;-58
2021/07/05 04:20:53;;;;;;;20.77;10.33;;;;;;;15.56;75.65;99722.16;125927;1093;27646;-61
2021/07/05 04:23:25;;;;;;;21.10;10.70;;;;;;;15.65;75.59;99727.42;125832;1092;22790;-58
2021/07/05 04:25:56;;;;;;;18.00;10.30;;;;;;;15.73;75.76;99720.69;126037;1093;24424;-59
2021/07/05 04:28:31;;;;;;;21.90;11.30;;;;;;;15.80;75.85;99719.35;125850;1093;22797;-58
2021/07/05 04:31:03;;;;;;;22.83;11.13;;;;;;;15.88;75.86;99709.03;125859;1093;24452;-59
2021/07/05 04:33:34;;;;;;;20.43;10.47;;;;;;;15.95;75.85;99722.52;125832;1093;22855;-59
2021/07/05 04:36:06;;;;;;;19.45;10.70;;;;;;;16.02;75.31;99719.88;125842;1093;22735;-56
2021/07/05 04:38:38;;;;;;;24.30;10.73;;;;;;;16.09;75.72;99716.47;126008;1093;22763;-59
2021/07/05 04:41:10;;;;;;;20.10;9.55;;;;;;;16.19;75.67;99711.23;126025;1093;22803;-61
2021/07/05 04:43:42;;;;;;;19.17;9.67;;;;;;;16.31;75.39;99714.66;125946;1093;26523;-60
2021/07/05 04:46:16;;;;;;;21.70;9.53;;;;;;;16.45;75.39;99714.22;125937;1093;24426;-58
2021/07/05 04:48:47;;;;;;;20.20;9.70;;;;;;;16.60;75.50;99710.97;125971;1093;22759;-60
2021/07/05 04:51:20;;;;;;;19.70;9.80;;;;;;;16.74;75.09;99701.28;125998;1093;22767;-59
2021/07/05 04:53:51;;;;;;;22.47;11.33;;;;;;;16.85;74.89;99701.13;126012;1091;22782;-59
2021/07/05 04:56:23;;;;;;;22.45;11.60;;;;;;;16.95;75.05;99697.39;125979;1093;23454;-65
2021/07/05 04:58:54;;;;;;;23.95;11.50;;;;;;;17.01;75.31;99700.11;125965;1092;22781;-58
2021/07/05 05:01:26;;;;;;;22.77;12.10;;;;;;;17.10;75.19;99688.44;125878;1093;22794;-58
2021/07/05 05:03:57;;;;;;;25.50;12.30;;;;;;;17.18;75.07;99691.38;125985;1093;27419;-61
2021/07/05 05:06:29;;;;;;;22.13;11.67;;;;;;;17.25;75.20;99699.23;125972;1093;26340;-59
2021/07/05 05:09:00;;;;;;;21.60;10.55;;;;;;;17.33;75.33;99698.06;126060;1093;22735;-59
2021/07/05 05:11:31;;;;;;;19.75;10.70;;;;;;;17.41;75.20;99690.48;125998;1093;22769;-58
2021/07/05 05:14:03;;;;;;;20.53;10.87;;;;;;;17.56;75.05;99701.28;125993;1093;26325;-59
2021/07/05 05:16:35;;;;;;;21.00;11.10;;;;;;;17.70;75.19;99697.17;126303;1093;22915;-59
2021/07/05 05:19:07;;;;;;;23.55;9.50;;;;;;;17.81;74.73;99691.33;126142;1093;22794;-58
2021/07/05 05:21:43;;;;;;;18.80;10.57;;;;;;;17.91;74.85;99700.88;126177;1093;25445;-60
2021/07/05 05:24:21;;;;;;;21.05;9.70;;;;;;;17.99;74.53;99689.69;126302;1092;27242;-59
2021/07/05 05:26:53;;;;;;;19.10;9.70;;;;;;;18.10;74.82;99689.47;126014;1093;25772;-60
2021/07/05 05:29:27;;;;;;;17.77;9.23;;;;;;;18.17;74.95;99688.80;125999;1093;24732;-59
2021/07/05 05:31:59;;;;;;;21.83;10.37;;;;;;;18.37;74.77;99682.48;125991;1092;22845;-59
2021/07/05 05:34:31;;;;;;;19.23;7.97;;;;;;;18.57;74.09;99673.33;126317;1093;22774;-58
2021/07/05 05:37:04;;;;;;;21.90;8.70;;;;;;;18.77;74.48;99683.14;126000;1092;25868;-60
2021/07/05 05:39:36;;;;;;;19.80;9.55;;;;;;;18.94;73.84;99683.52;126044;1093;22766;-59
2021/07/05 05:42:07;;;;;;;20.50;9.40;;;;;;;19.05;73.53;99680.44;126307;1092;24327;-59
2021/07/05 05:44:39;;;;;;;20.35;7.90;;;;;;;19.10;73.02;99673.86;125997;1092;24458;-59
2021/07/05 05:47:11;;;;;;;16.30;8.35;;;;;;;19.16;73.17;99672.42;126109;1093;22760;-59
2021/07/05 05:49:43;;;;;;;18.95;8.00;;;;;;;19.31;73.07;99672.56;125933;1093;22763;-60
2021/07/05 05:52:15;;;;;;;19.60;9.60;;;;;;;19.43;72.89;99669.48;126060;1093;27300;-59
2021/07/05 05:54:46;;;;;;;13.90;7.13;;;;;;;19.48;72.99;99668.56;126062;1093;23273;-58
2021/07/05 05:57:29;;;;;;;16.93;7.60;;;;;;;19.59;72.15;99671.88;125924;1093;26677;-59
2021/07/05 06:00:02;;;;;;;16.75;7.70;;;;;;;19.64;71.95;99670.95;125950;1093;22902;-60
2021/07/05 06:02:34;;;;;;;19.53;8.60;;;;;;;19.71;72.14;99670.26;126445;1093;22739;-59
2021/07/05 06:05:07;;;;;;;12.73;5.97;;;;;;;19.88;72.29;99679.06;126283;1089;26473;-59
2021/07/05 06:07:42;;;;;;;17.75;7.33;;;;;;;20.06;72.18;99688.59;126310;1092;22797;-62
2021/07/05 06:10:17;;;;;;;18.10;8.13;;;;;;;20.22;71.39;99687.39;126072;1093;23456;-59
2021/07/05 06:12:49;;;;;;;16.23;7.78;;;;;;;20.26;71.34;99689.88;125961;1093;22763;-58
2021/07/05 06:15:23;;;;;;;15.25;6.80;;;;;;;20.33;71.25;99683.47;126108;1093;22782;-60
2021/07/05 06:17:55;;;;;;;15.30;6.75;;;;;;;20.45;71.10;99684.66;125955;1093;22761;-57
2021/07/05 06:20:27;;;;;;;14.75;7.10;;;;;;;20.56;71.01;99685.09;126059;1093;22756;-60
2021/07/05 06:22:59;;;;;;;17.60;8.15;;;;;;;20.68;70.31;99689.10;126183;1093;22820;-59
2021/07/05 06:25:31;;;;;;;18.93;7.40;;;;;;;20.74;70.12;99689.69;126197;1093;23036;-61
2021/07/05 06:28:03;;;;;;;19.10;7.03;;;;;;;20.84;70.22;99692.73;126084;1093;22761;-59
2021/07/05 06:30:35;;;;;;;15.05;6.65;;;;;;;21.01;70.53;99683.69;126164;1093;24886;-59
2021/07/05 06:33:07;;;;;;;16.58;6.30;;;;;;;21.18;69.98;99696.05;126218;1093;22797;-61
2021/07/05 06:35:41;;;;;;;17.18;7.38;;;;;;;21.24;69.22;99688.11;125896;1093;22848;-59
2021/07/05 06:38:14;;;;;;;14.08;6.98;;;;;;;21.29;69.45;99692.09;125946;1093;26927;-59
2021/07/05 06:40:46;;;;;;;15.50;6.77;;;;;;;21.38;69.34;99692.27;125948;1093;22812;-59
2021/07/05 06:43:18;;;;;;;15.90;6.43;;;;;;;21.51;69.58;99691.33;126093;1093;22763;-61
2021/07/05 06:45:50;;;;;;;21.23;7.05;;;;;;;21.64;69.20;99696.83;125906;1093;22780;-61
2021/07/05 06:48:22;;;;;;;15.40;5.75;;;;;;;21.71;68.66;99698.89;126028;1093;24182;-61
2021/07/05 06:51:22;;;;;;;15.50;6.07;;;;;;;21.76;68.90;99703.63;126024;1093;26232;-59
2021/07/05 06:54:00;;;;;;;12.65;6.23;;;;;;;21.86;68.47;99701.75;125946;1093;24546;-62
2021/07/05 06:56:31;;;;;;;16.48;6.10;;;;;;;21.94;67.65;99698.89;125866;1093;22768;-59
2021/07/05 06:59:04;;;;;;;14.38;6.15;;;;;;;22.03;68.30;99689.78;126018;1092;22770;-60
2021/07/05 07:01:36;;;;;;;11.25;5.65;;;;;;;22.11;67.78;99688.44;126062;1093;22820;-60
2021/07/05 07:04:08;;;;;;;12.70;6.00;;;;;;;22.16;67.09;99703.78;126037;1092;22761;-60
2021/07/05 07:06:40;;;;;;;12.18;5.03;;;;;;;22.19;67.01;99696.94;125966;1093;22754;-60
2021/07/05 07:09:12;;;;;;;11.18;4.83;;;;;;;22.26;67.12;99701.86;125863;1093;22795;-59
2021/07/05 07:11:44;;;;;;;16.00;5.68;;;;;;;22.34;66.99;99706.20;125891;1093;22760;-58
2021/07/05 07:14:18;;;;;;;9.67;4.57;;;;;;;22.44;66.17;99709.19;125881;1093;24460;-60
2021/07/05 07:16:53;;;;;;;9.83;4.90;;;;;;;22.54;66.23;99705.16;125915;1093;22784;-58
2021/07/05 07:19:25;;;;;;;10.83;4.88;;;;;;;22.66;65.91;99699.81;125899;1093;25849;-61
2021/07/05 07:21:58;;;;;;;9.05;4.08;;;;;;;22.76;65.50;99700.71;126072;1093;24161;-59
2021/07/05 07:24:31;;;;;;;10.93;4.83;;;;;;;22.82;65.02;99706.97;125818;1093;24481;-59
2021/07/05 07:27:06;;;;;;;12.30;4.60;;;;;;;22.88;65.29;99712.44;125996;1093;22823;-59
2021/07/05 07:29:39;;;;;;;9.78;4.25;;;;;;;23.01;65.89;99707.22;126110;1093;22809;-60
2021/07/05 07:32:14;;;;;;;11.37;4.53;;;;;;;23.17;65.30;99699.35;125836;1092;22760;-58
2021/07/05 07:34:45;;;;;;;11.08;4.55;;;;;;;23.34;64.94;99696.58;125883;1093;22772;-59
2021/07/05 07:37:19;;;;;;;11.70;4.30;;;;;;;23.47;64.39;99690.59;126024;1091;24407;-60
2021/07/05 07:39:56;;;;;;;9.35;4.50;;;;;;;23.59;64.27;99685.20;125922;1093;22775;-59
2021/07/05 07:42:28;;;;;;;11.00;4.53;;;;;;;23.71;63.90;99684.11;125898;1093;26242;-60
2021/07/05 07:45:01;;;;;;;9.53;4.20;;;;;;;23.86;63.91;99686.06;125912;1093;25980;-62
2021/07/05 07:47:32;;;;;;;12.28;4.65;;;;;;;23.96;62.97;99686.94;125853;1093;27338;-60
2021/07/05 07:50:05;;;;;;;8.80;3.43;;;;;;;24.05;62.97;99683.42;125978;1093;22781;-60
2021/07/05 07:52:38;;;;;;;7.98;3.35;;;;;;;24.11;62.01;99681.08;126046;1093;22791;-61
2021/07/05 07:55:12;;;;;;;9.80;3.30;;;;;;;24.07;60.38;99672.19;125942;1093;22874;-61
2021/07/05 07:57:46;;;;;;;9.83;2.90;;;;;;;24.05;60.58;99669.93;125890;1093;22986;-62
2021/07/05 08:00:19;;;;;;;10.53;3.58;;;;;;;24.07;60.25;99666.48;125953;1093;22855;-60
2021/07/05 08:02:50;;;;;;;9.15;3.80;;;;;;;24.09;59.75;99663.80;125993;1093;26507;-60
2021/07/05 08:05:22;;;;;;;9.87;3.50;;;;;;;24.16;59.50;99667.91;125977;1093;24901;-59
2021/07/05 08:07:53;;;;;;;6.78;2.65;;;;;;;24.23;59.34;99656.41;126085;1093;26201;-60
2021/07/05 08:10:25;;;;;;;9.93;2.30;;;;;;;24.33;59.12;99656.50;125968;1093;25963;-60
2021/07/05 08:12:57;;;;;;;8.57;2.43;;;;;;;24.43;57.75;99655.23;126023;1092;22790;-61
2021/07/05 08:15:29;;;;;;;6.98;2.13;;;;;;;24.45;57.36;99660.34;126126;1093;22881;-60
2021/07/05 08:18:00;;;;;;;7.90;2.25;;;;;;;24.52;56.42;99653.80;126101;1093;22780;-59
2021/07/05 08:20:32;;;;;;;6.23;2.08;;;;;;;24.61;56.18;99662.41;126014;1093;22799;-60
2021/07/05 08:23:04;;;;;;;9.05;2.20;;;;;;;24.78;55.99;99667.34;126282;1093;22787;-60
2021/07/05 08:25:35;;;;;;;6.40;2.30;;;;;;;24.84;54.73;99664.98;125890;1093;22784;-60
2021/07/05 08:28:09;;;;;;;4.90;1.88;;;;;;;24.83;53.82;99658.51;125919;1092;23199;-60
2021/07/05 08:30:42;;;;;;;6.48;2.13;;;;;;;24.84;54.15;99654.31;126104;1093;24454;-60
2021/07/05 08:33:13;;;;;;;8.00;2.65;;;;;;;24.94;54.78;99662.16;126069;1093;22771;-62
2021/07/05 08:35:45;;;;;;;10.63;2.93;;;;;;;25.07;54.75;99653.98;126178;1093;24561;-60
2021/07/05 08:38:16;;;;;;;7.03;2.33;;;;;;;25.18;53.93;99652.67;125919;1091;22813;-61
2021/07/05 08:40:48;;;;;;;5.55;2.08;;;;;;;25.29;53.29;99658.57;125974;1093;22794;-65
2021/07/05 08:43:21;;;;;;;7.10;2.08;;;;;;;25.39;52.92;99662.21;125991;1092;22768;-61
2021/07/05 08:45:54;;;;;;;7.03;2.03;;;;;;;25.53;52.59;99656.88;126059;1093;22784;-60
2021/07/05 08:48:27;;;;;;;7.25;2.58;;;;;;;25.69;52.59;99655.27;126105;1092;22777;-60
2021/07/05 08:51:00;;;;;;;7.37;2.43;;;;;;;25.82;51.74;99659.80;125909;1093;22760;-60
2021/07/05 08:53:32;;;;;;;7.18;2.43;;;;;;;25.91;51.75;99656.94;125983;1093;25440;-60
2021/07/05 08:56:04;;;;;;;7.33;2.35;;;;;;;26.03;51.83;99652.13;126370;1093;24351;-61
2021/07/05 08:58:36;;;;;;;10.45;2.63;;;;;;;26.11;50.99;99664.20;126090;1093;22848;-61
2021/07/05 09:01:09;;;;;;;6.80;2.80;;;;;;;26.05;50.43;99665.85;125950;1093;22802;-60
2021/07/05 09:03:41;;;;;;;6.98;2.45;;;;;;;26.00;50.99;99666.89;126058;1093;27338;-60
2021/07/05 09:06:15;;;;;;;7.58;2.28;;;;;;;26.03;50.66;99660.71;125987;1092;27201;-61
2021/07/05 09:08:48;;;;;;;8.68;2.45;;;;;;;26.12;51.22;99657.14;126316;1093;27300;-60
2021/07/05 09:11:36;;;;;;;10.53;2.60;;;;;;;26.28;50.03;99658.34;126087;1093;22810;-60
2021/07/05 09:14:14;;;;;;;5.88;2.05;;;;;;;26.40;49.74;99659.23;126229;1092;24153;-60
2021/07/05 09:16:50;;;;;;;6.83;2.40;;;;;;;26.51;49.36;99660.00;126084;1093;22764;-60
2021/07/05 09:19:23;;;;;;;9.55;2.35;;;;;;;26.44;48.76;99645.22;125999;1092;25871;-60
2021/07/05 09:21:57;;;;;;;7.00;2.68;;;;;;;26.38;48.49;99646.91;126034;1092;25262;-61
2021/07/05 09:24:32;;;;;;;6.45;2.20;;;;;;;26.35;47.20;99651.72;126077;1093;22789;-61
2021/07/05 09:27:11;;;;;;;7.83;2.35;;;;;;;26.27;47.62;99651.13;126108;1093;27207;-60
2021/07/05 09:29:44;;;;;;;8.90;2.35;;;;;;;26.17;47.33;99655.34;125958;1093;22791;-60
2021/07/05 09:32:26;;;;;;;6.83;2.27;;;;;;;26.11;47.32;99658.48;126015;1093;22839;-61
2021/07/05 09:34:58;;;;;;;8.50;2.33;;;;;;;26.18;47.78;99642.53;126230;1093;25868;-62
2021/07/05 09:37:32;;;;;;;8.25;2.18;;;;;;;26.32;47.72;99655.78;126214;1093;22790;-61
2021/07/05 09:40:19;;;;;;;5.90;2.30;;;;;;;26.48;47.94;99652.61;126353;1093;22812;-60
2021/07/05 09:42:53;;;;;;;5.95;2.05;;;;;;;26.62;47.24;99651.53;125993;1093;22816;-60
2021/07/05 09:45:35;;;;;;;5.63;2.08;;;;;;;26.69;46.82;99650.63;126052;1093;23222;-61
2021/07/05 09:48:18;;;;;;;5.75;2.10;;;;;;;26.71;46.66;99650.77;126271;1093;22816;-60
2021/07/05 09:51:03;;;;;;;6.73;2.08;;;;;;;26.71;46.40;99656.50;125979;1093;26024;-59
2021/07/05 09:53:39;;;;;;;6.08;2.05;;;;;;;26.69;46.14;99658.45;126081;1092;24578;-61
2021/07/05 09:56:25;;;;;;;8.40;2.10;;;;;;;26.72;46.08;99654.39;125965;1093;23566;-61
2021/07/05 09:59:00;;;;;;;6.58;2.03;;;;;;;26.72;46.78;99655.16;126155;1093;23068;-60
2021/07/05 10:01:44;;;;;;;8.18;2.18;;;;;;;26.75;46.49;99658.92;126156;1093;22816;-62
2021/07/05 10:04:25;;;;;;;8.03;2.35;;;;;;;26.73;46.03;99656.67;126029;1093;22784;-60
2021/07/05 10:06:55;;;;;;;;;;;;;;;26.75;45.92;99653.19;126223;1093;22772;-65
2021/07/05 10:09:38;;;;;;;5.20;1.90;;;;;;;26.72;45.55;99658.02;126089;1093;24203;-60
2021/07/05 10:12:29;;;;;;;8.18;2.35;;;;;;;26.71;45.44;99662.22;126047;1093;27586;-62
2021/07/05 10:15:05;;;;;;;10.78;2.83;;;;;;;26.66;45.53;99671.11;126011;1093;22784;-61
2021/07/05 10:17:39;;;;;;;6.87;2.33;;;;;;;26.67;45.73;99659.04;126484;1093;22794;-60
2021/07/05 10:20:13;;;;;;;5.30;1.83;;;;;;;26.70;45.90;99674.27;126172;1093;22839;-60
2021/07/05 10:22:46;;;;;;;9.30;2.63;;;;;;;26.70;45.44;99660.70;126059;1093;22845;-60
2021/07/05 10:25:20;;;;;;;6.15;2.18;;;;;;;26.71;45.78;99670.05;125992;1093;25458;-60
2021/07/05 10:27:52;;;;;;;7.78;2.63;;;;;;;26.70;45.56;99674.27;126354;1093;22799;-62
2021/07/05 10:30:25;;;;;;;8.03;2.37;;;;;;;26.67;45.85;99679.08;125980;1093;28506;-62
2021/07/05 10:32:57;;;;;;;7.50;2.40;;;;;;;26.66;45.83;99669.00;126246;1093;23563;-62
2021/07/05 10:35:38;;;;;;;7.80;2.63;;;;;;;26.68;45.35;99676.98;126034;1093;22787;-62
2021/07/05 10:38:16;;;;;;;11.47;2.40;;;;;;;26.72;45.51;99666.61;125986;1092;22784;-60
2021/07/05 10:40:49;;;;;;;8.87;2.50;;;;;;;26.71;45.25;99681.51;126043;1093;26527;-60
2021/07/05 10:43:23;;;;;;;6.70;2.58;;;;;;;26.66;45.06;99680.45;125967;1093;22922;-60
2021/07/05 10:45:59;;;;;;;6.60;2.60;;;;;;;26.56;45.16;99679.72;126080;1093;22845;-61
2021/07/05 10:48:42;;;;;;;4.95;2.03;;;;;;;26.56;45.54;99684.69;126114;1093;22845;-61
2021/07/05 10:51:15;;;;;;;6.23;2.10;;;;;;;26.61;45.40;99683.64;125974;1093;22735;-60
2021/07/05 10:53:57;;;;;;;7.15;2.05;;;;;;;26.70;45.41;99680.75;126138;1093;22824;-61
2021/07/05 10:56:36;;;;;;;8.90;2.27;;;;;;;26.81;44.79;99676.54;126050;1093;27394;-61
2021/07/05 10:59:48;;;;;;;9.25;2.20;;;;;;;26.90;44.66;99679.38;126081;1093;27622;-60
2021/07/05 11:02:47;;;;;;;7.55;2.35;;;;;;;27.00;44.36;99679.36;126026;1092;26276;-61
2021/07/05 11:05:48;;;;;;;7.40;1.80;;;;;;;27.05;44.34;99676.17;126108;1093;27275;-61
2021/07/05 11:08:31;;;;;;;6.57;1.90;;;;;;;27.08;43.58;99682.80;126029;1093;24489;-61
2021/07/05 11:11:24;;;;;;;6.77;1.80;;;;;;;27.18;44.02;99677.78;126025;1093;27508;-60
2021/07/05 11:14:17;;;;;;;5.75;1.98;;;;;;;27.30;42.73;99672.14;126056;1093;22858;-60
2021/07/05 11:17:03;;;;;;;5.00;1.80;;;;;;;27.39;42.45;99666.41;126053;1093;22760;-60
2021/07/05 11:19:46;;;;;;;6.07;1.77;;;;;;;27.46;41.97;99685.53;126100;1093;22845;-60
2021/07/05 11:22:23;;;;;;;9.40;2.30;;;;;;;27.40;41.63;99679.38;126122;1093;22848;-61
2021/07/05 11:25:15;;;;;;;6.90;1.70;;;;;;;27.27;41.16;99679.11;126010;1093;22790;-62
2021/07/05 11:27:51;;;;;;;6.28;1.80;;;;;;;27.28;41.53;99687.09;125990;1093;22761;-61
2021/07/05 11:30:46;;;;;;;5.65;1.70;;;;;;;27.30;41.33;99689.34;126092;1093;22764;-60
2021/07/05 11:33:30;;;;;;;5.38;1.80;;;;;;;27.34;41.27;99687.55;126013;1092;22798;-61
2021/07/05 11:36:04;;;;;;;6.93;2.00;;;;;;;27.39;41.76;99688.59;125996;1093;24409;-60
2021/07/05 11:38:39;;;;;;;6.50;2.20;;;;;;;27.39;41.18;99682.86;126187;1093;22854;-62
2021/07/05 11:44:16;;;;;;;5.25;1.85;;;;;;;27.30;41.10;99683.61;125956;1093;22925;-61
2021/07/05 11:46:53;;;;;;;7.33;1.90;;;;;;;27.23;40.91;99682.42;125769;1093;22767;-59
2021/07/05 11:49:33;;;;;;;6.70;2.20;;;;;;;27.14;41.15;99683.98;126121;1093;22767;-59
2021/07/05 11:52:06;;;;;;;7.60;2.00;;;;;;;27.09;41.99;99687.92;125994;1093;22767;-58
2021/07/05 11:54:38;;;;;;;6.10;2.08;;;;;;;27.10;42.06;99680.08;125750;1092;24429;-60